createdAt,value
2018-05-03T00:00:30.095Z,100491.19
2018-05-03T00:02:58.432Z,100488.23
2018-05-03T00:05:26.757Z,100494.11
2018-05-03T00:07:55.107Z,100494.33
2018-05-03T00:10:23.411Z,100499.73
2018-05-03T00:12:51.747Z,100503.06
2018-05-03T00:15:20.069Z,100504.34
2018-05-03T00:17:48.412Z,100512.92
2018-05-03T00:20:16.740Z,100503.96
2018-05-03T00:22:45.077Z,100507.08
2018-05-03T00:25:13.388Z,100508.98
2018-05-03T00:27:41.728Z,100514.03
2018-05-03T00:30:10.055Z,100518.96
2018-05-03T00:32:38.394Z,100516.92
2018-05-03T00:35:06.713Z,100523.95
2018-05-03T00:37:35.052Z,100522.50
2018-05-03T00:40:03.376Z,100530.73
2018-05-03T00:42:31.726Z,100532.95
2018-05-03T00:45:00.040Z,100548.92
2018-05-03T00:47:28.380Z,100547.50
2018-05-03T00:49:56.711Z,100548.99
2018-05-03T00:52:25.040Z,100552.50
2018-05-03T00:54:53.369Z,100550.48
2018-05-03T00:57:21.717Z,100551.78
2018-05-03T00:59:50.045Z,100544.84
2018-05-03T01:02:18.376Z,100542.94
2018-05-03T01:04:46.704Z,100548.50
2018-05-03T01:07:15.049Z,100561.73
2018-05-03T01:09:43.369Z,100563.92
2018-05-03T01:12:11.712Z,100560.05
2018-05-03T01:14:40.046Z,100563.94
2018-05-03T01:17:08.392Z,100564.91
2018-05-03T01:19:36.720Z,100567.57
2018-05-03T01:22:05.073Z,100573.13
2018-05-03T01:24:33.401Z,100573.60
2018-05-03T01:27:01.753Z,100582.62
2018-05-03T01:29:30.072Z,100582.60
2018-05-03T01:31:58.420Z,100583.45
2018-05-03T01:34:26.741Z,100584.69
2018-05-03T01:36:55.101Z,100579.51
2018-05-03T01:39:23.432Z,100588.52
2018-05-03T01:41:51.786Z,100586.35
2018-05-03T01:44:20.104Z,100584.59
2018-05-03T01:46:48.451Z,100589.28
2018-05-03T01:49:16.776Z,100586.45
2018-05-03T01:51:45.129Z,100588.03
2018-05-03T01:54:13.452Z,100589.14
2018-05-03T01:56:41.795Z,100582.66
2018-05-03T01:59:10.125Z,100584.67
2018-05-03T02:01:38.449Z,100584.36
2018-05-03T02:04:06.801Z,100596.94
2018-05-03T02:06:35.133Z,100592.22
2018-05-03T02:09:03.485Z,100591.55
2018-05-03T02:11:31.813Z,100592.17
2018-05-03T02:14:00.168Z,100584.14
2018-05-03T02:16:28.484Z,100593.40
2018-05-03T02:18:56.832Z,100592.73
2018-05-03T02:21:25.157Z,100598.48
2018-05-03T02:23:53.500Z,100600.10
2018-05-03T02:26:21.824Z,100590.50
2018-05-03T02:28:50.164Z,100599.42
2018-05-03T02:31:18.484Z,100596.94
2018-05-03T02:33:46.844Z,100603.78
2018-05-03T02:36:15.177Z,100614.47
2018-05-03T02:38:43.802Z,100614.90
2018-05-03T02:41:12.114Z,100617.95
2018-05-03T02:43:40.456Z,100623.63
2018-05-03T02:46:08.781Z,100630.75
2018-05-03T02:48:37.129Z,100631.31
2018-05-03T02:51:05.452Z,100627.23
2018-05-03T02:53:33.808Z,100626.95
2018-05-03T02:56:02.138Z,100623.17
2018-05-03T02:58:42.401Z,100626.28
2018-05-03T03:01:28.325Z,100625.12
2018-05-03T03:04:14.336Z,100641.91
2018-05-03T03:07:00.109Z,100640.80
2018-05-03T03:12:57.064Z,100646.63
2018-05-03T03:15:39.220Z,100649.11
2018-05-03T03:18:19.304Z,100649.03
2018-05-03T03:21:05.267Z,100652.02
2018-05-03T03:23:51.155Z,100658.23
2018-05-03T03:26:37.021Z,100660.86
2018-05-03T03:29:23.036Z,100662.10
2018-05-03T03:32:08.896Z,100660.74
2018-05-03T03:34:37.247Z,100665.77
2018-05-03T03:37:26.330Z,100673.38
2018-05-03T03:40:12.136Z,100672.16
2018-05-03T03:45:50.312Z,100672.83
2018-05-03T03:48:18.648Z,100683.46
2018-05-03T03:50:46.977Z,100685.45
2018-05-03T03:53:15.360Z,100691.78
2018-05-03T03:55:43.662Z,100692.14
2018-05-03T03:58:12.008Z,100702.24
2018-05-03T04:00:40.336Z,100704.61
2018-05-03T04:03:08.688Z,100715.50
2018-05-03T04:05:37.014Z,100718.36
2018-05-03T04:08:05.360Z,100726.11
2018-05-03T04:10:33.683Z,100726.65
2018-05-03T04:13:02.039Z,100726.30
2018-05-03T04:15:30.359Z,100725.41
2018-05-03T04:18:10.620Z,100715.45
2018-05-03T04:21:02.800Z,100716.64
2018-05-03T04:23:43.758Z,100723.47
2018-05-03T04:26:12.103Z,100731.19
2018-05-03T04:28:40.448Z,100737.95
2018-05-03T04:31:08.775Z,100736.00
2018-05-03T04:33:37.131Z,100733.77
2018-05-03T04:36:05.456Z,100736.58
2018-05-03T04:38:34.690Z,100724.07
2018-05-03T04:41:03.021Z,100741.30
2018-05-03T04:43:31.377Z,100747.47
2018-05-03T04:45:59.704Z,100744.59
2018-05-03T04:48:28.055Z,100752.94
2018-05-03T04:50:56.457Z,100755.01
2018-05-03T04:53:24.812Z,100754.13
2018-05-03T04:55:53.148Z,100757.16
2018-05-03T04:58:22.316Z,100766.48
2018-05-03T05:00:50.654Z,100763.22
2018-05-03T05:03:18.981Z,100769.91
2018-05-03T05:05:47.332Z,100771.16
2018-05-03T05:08:15.677Z,100779.66
2018-05-03T05:10:44.029Z,100780.78
2018-05-03T05:13:12.369Z,100793.60
2018-05-03T05:15:40.765Z,100800.45
2018-05-03T05:18:10.048Z,100805.52
2018-05-03T05:20:38.396Z,100812.17
2018-05-03T05:23:06.729Z,100816.56
2018-05-03T05:25:35.084Z,100816.95
2018-05-03T05:28:03.416Z,100816.56
2018-05-03T05:30:31.777Z,100823.64
2018-05-03T05:33:00.109Z,100832.88
2018-05-03T05:35:28.473Z,100838.70
2018-05-03T05:37:57.460Z,100836.38
2018-05-03T05:40:25.819Z,100846.20
2018-05-03T05:42:54.154Z,100846.59
2018-05-03T05:45:22.535Z,100851.58
2018-05-03T05:47:50.880Z,100850.78
2018-05-03T05:50:19.264Z,100862.73
2018-05-03T05:52:47.613Z,100866.22
2018-05-03T05:55:15.981Z,100877.37
2018-05-03T05:57:45.246Z,100865.75
2018-05-03T06:00:13.605Z,100875.75
2018-05-03T06:02:41.946Z,100884.41
2018-05-03T06:05:10.315Z,100880.33
2018-05-03T06:07:38.644Z,100886.70
2018-05-03T06:10:07.013Z,100888.63
2018-05-03T06:12:35.360Z,100888.84
2018-05-03T06:20:42.300Z,100899.09
2018-05-03T06:23:10.637Z,100901.14
2018-05-03T06:25:38.985Z,100907.24
2018-05-03T06:28:07.312Z,100913.96
2018-05-03T06:30:35.672Z,100918.31
2018-05-03T06:33:04.001Z,100922.08
2018-05-03T06:35:32.356Z,100925.27
2018-05-03T06:38:00.680Z,100930.84
2018-05-03T06:43:09.344Z,100939.30
2018-05-03T06:45:37.697Z,100939.52
2018-05-03T06:48:06.029Z,100944.20
2018-05-03T06:50:34.384Z,100949.25
2018-05-03T06:53:02.717Z,100952.78
2018-05-03T06:55:31.078Z,100961.02
2018-05-03T06:57:59.396Z,100966.03
2018-05-03T07:00:27.752Z,100966.92
2018-05-03T07:02:56.097Z,100971.62
2018-05-03T07:05:24.453Z,100974.88
2018-05-03T07:07:52.825Z,100978.11
2018-05-03T07:10:21.197Z,100981.52
2018-05-03T07:12:49.536Z,100982.92
2018-05-03T07:15:17.871Z,100984.88
2018-05-03T07:17:46.209Z,100988.00
2018-05-03T07:20:14.556Z,100996.83
2018-05-03T07:22:42.888Z,100992.45
2018-05-03T07:25:11.228Z,100997.61
2018-05-03T07:27:39.563Z,100996.22
2018-05-03T07:30:07.912Z,100998.97
2018-05-03T07:32:36.249Z,101005.40
2018-05-03T07:35:04.589Z,101009.17
2018-05-03T07:37:32.913Z,101014.69
2018-05-03T07:40:01.273Z,101014.34
2018-05-03T07:42:29.609Z,101022.36
2018-05-03T07:44:57.965Z,101029.30
2018-05-03T07:47:26.292Z,101027.00
2018-05-03T07:49:54.620Z,101024.20
2018-05-03T07:52:22.976Z,101029.47
2018-05-03T07:54:51.304Z,101033.02
2018-05-03T07:57:19.648Z,101038.72
2018-05-03T07:59:47.981Z,101039.06
2018-05-03T08:02:16.332Z,101050.23
2018-05-03T08:04:44.647Z,101050.87
2018-05-03T08:07:12.989Z,101046.71
2018-05-03T08:09:41.317Z,101052.81
2018-05-03T08:12:09.663Z,101060.03
2018-05-03T08:14:37.977Z,101065.92
2018-05-03T08:17:06.402Z,101068.08
2018-05-03T08:19:34.638Z,101068.84
2018-05-03T08:22:02.977Z,101075.70
2018-05-03T08:24:31.292Z,101079.86
2018-05-03T08:26:59.643Z,101086.52
2018-05-03T08:29:27.952Z,101084.58
2018-05-03T08:31:56.307Z,101084.95
2018-05-03T08:34:24.617Z,101084.33
2018-05-03T08:36:52.960Z,101084.02
2018-05-03T08:39:21.296Z,101096.45
2018-05-03T08:41:49.632Z,101096.47
2018-05-03T08:44:17.953Z,101098.78
2018-05-03T08:46:46.292Z,101104.69
2018-05-03T08:49:14.613Z,101111.31
2018-05-03T08:51:42.945Z,101105.89
2018-05-03T08:54:11.268Z,101101.53
2018-05-03T08:56:39.608Z,101106.83
2018-05-03T08:59:07.943Z,101110.42
2018-05-03T09:01:36.292Z,101120.56
2018-05-03T09:04:04.597Z,101125.34
2018-05-03T09:06:32.936Z,101124.98
2018-05-03T09:09:01.249Z,101126.59
2018-05-03T09:11:29.592Z,101124.01
2018-05-03T09:13:57.912Z,101120.70
2018-05-03T09:16:26.254Z,101129.52
2018-05-03T09:18:54.572Z,101135.00
2018-05-03T09:21:22.921Z,101131.91
2018-05-03T09:23:51.250Z,101133.67
2018-05-03T09:26:19.604Z,101141.31
2018-05-03T09:28:47.918Z,101144.56
2018-05-03T09:31:16.260Z,101143.52
2018-05-03T09:33:44.580Z,101147.17
2018-05-03T09:36:12.926Z,101150.76
2018-05-03T09:38:41.242Z,101134.95
2018-05-03T09:41:09.592Z,101153.14
2018-05-03T09:43:37.929Z,101162.23
2018-05-03T09:46:06.275Z,101159.69
2018-05-03T09:48:34.619Z,101167.44
2018-05-03T09:51:02.948Z,101161.88
2018-05-03T09:53:31.312Z,101159.77
2018-05-03T09:55:59.839Z,101162.42
2018-05-03T09:58:28.193Z,101163.13
2018-05-03T10:00:56.528Z,101159.88
2018-05-03T10:03:24.872Z,101168.49
2018-05-03T10:05:53.209Z,101171.02
2018-05-03T10:08:21.555Z,101170.89
2018-05-03T10:10:49.888Z,101165.84
2018-05-03T10:13:18.319Z,101155.95
2018-05-03T10:15:48.276Z,101147.05
2018-05-03T10:18:16.633Z,101160.90
2018-05-03T10:20:44.965Z,101161.34
2018-05-03T10:23:13.326Z,101161.47
2018-05-03T10:25:41.665Z,101162.70
2018-05-03T10:28:10.021Z,101166.77
2018-05-03T10:30:38.407Z,101159.39
2018-05-03T10:33:06.764Z,101173.10
2018-05-03T10:35:35.917Z,101163.64
2018-05-03T10:38:04.275Z,101164.73
2018-05-03T10:40:32.605Z,101168.67
2018-05-03T10:43:00.952Z,101170.83
2018-05-03T10:45:29.280Z,101166.03
2018-05-03T10:47:57.632Z,101162.42
2018-05-03T10:50:25.964Z,101166.16
2018-05-03T10:52:54.324Z,101170.06
2018-05-03T10:55:22.724Z,101161.89
2018-05-03T10:57:51.084Z,101166.11
2018-05-03T11:00:19.408Z,101166.95
2018-05-03T11:02:47.766Z,101166.91
2018-05-03T11:05:16.128Z,101163.99
2018-05-03T11:07:44.456Z,101176.55
2018-05-03T11:10:12.784Z,101172.70
2018-05-03T11:12:41.197Z,101175.34
2018-05-03T11:15:10.489Z,101180.86
2018-05-03T11:17:38.845Z,101178.60
2018-05-03T11:20:07.168Z,101177.55
2018-05-03T11:22:35.526Z,101169.77
2018-05-03T11:25:03.845Z,101174.78
2018-05-03T11:27:32.192Z,101169.75
2018-05-03T11:30:00.521Z,101173.43
2018-05-03T11:32:28.892Z,101175.56
2018-05-03T11:34:57.277Z,101171.68
2018-05-03T11:37:25.628Z,101179.36
2018-05-03T11:39:53.968Z,101187.56
2018-05-03T11:42:22.324Z,101190.02
2018-05-03T11:44:50.644Z,101190.59
2018-05-03T11:47:19.033Z,101193.86
2018-05-03T11:49:47.328Z,101188.80
2018-05-03T11:52:15.663Z,101193.25
2018-05-03T11:54:44.960Z,101194.75
2018-05-03T11:57:13.293Z,101183.67
2018-05-03T11:59:41.649Z,101188.78
2018-05-03T12:02:09.981Z,101197.14
2018-05-03T12:04:38.342Z,101199.66
2018-05-03T12:07:06.696Z,101209.86
2018-05-03T12:09:35.061Z,101208.42
2018-05-03T12:12:03.390Z,101211.23
2018-05-03T12:14:31.753Z,101225.17
2018-05-03T12:17:00.095Z,101214.53
2018-05-03T12:19:28.445Z,101213.34
2018-05-03T12:21:56.772Z,101221.20
2018-05-03T12:24:25.150Z,101219.33
2018-05-03T12:26:53.456Z,101224.09
2018-05-03T12:29:21.808Z,101227.40
2018-05-03T12:31:50.154Z,101229.66
2018-05-03T12:34:19.392Z,101218.82
2018-05-03T12:36:47.737Z,101224.17
2018-05-03T12:39:16.084Z,101228.12
2018-05-03T12:41:44.425Z,101218.50
2018-05-03T12:44:12.941Z,101227.47
2018-05-03T12:46:41.268Z,101230.23
2018-05-03T12:49:09.625Z,101226.09
2018-05-03T12:51:37.965Z,101226.33
2018-05-03T12:54:06.931Z,101235.73
2018-05-03T12:56:35.266Z,101223.11
2018-05-03T12:59:03.625Z,101228.52
2018-05-03T13:01:31.965Z,101225.44
2018-05-03T13:04:00.321Z,101225.87
2018-05-03T13:06:28.669Z,101230.47
2018-05-03T13:08:57.024Z,101226.73
2018-05-03T13:11:25.353Z,101231.38
2018-05-03T13:13:54.544Z,101228.45
2018-05-03T13:16:22.893Z,101234.80
2018-05-03T13:18:51.231Z,101234.25
2018-05-03T13:21:19.568Z,101230.56
2018-05-03T13:23:47.924Z,101233.52
2018-05-03T13:26:16.257Z,101236.55
2018-05-03T13:28:44.944Z,101237.77
2018-05-03T13:31:13.307Z,101237.70
2018-05-03T13:33:41.670Z,101242.11
2018-05-03T13:36:09.996Z,101240.16
2018-05-03T13:38:38.348Z,101244.22
2018-05-03T13:41:06.768Z,101247.06
2018-05-03T13:43:35.119Z,101247.95
2018-05-03T13:46:03.457Z,101247.66
2018-05-03T13:48:31.815Z,101244.84
2018-05-03T13:51:00.152Z,101243.20
2018-05-03T13:53:28.878Z,101241.21
2018-05-03T13:55:57.143Z,101245.67
2018-05-03T13:58:25.469Z,101250.13
2018-05-03T14:00:53.906Z,101245.92
2018-05-03T14:03:22.149Z,101250.98
2018-05-03T14:05:50.504Z,101256.20
2018-05-03T14:08:18.844Z,101255.98
2018-05-03T14:10:47.192Z,101259.89
2018-05-03T14:13:16.692Z,101247.14
2018-05-03T14:15:45.049Z,101255.20
2018-05-03T14:18:13.396Z,101252.47
2018-05-03T14:20:41.753Z,101248.16
2018-05-03T14:23:10.093Z,101248.91
2018-05-03T14:25:38.465Z,101254.99
2018-05-03T14:28:06.792Z,101257.80
2018-05-03T14:30:35.151Z,101252.84
2018-05-03T14:33:04.332Z,101250.19
2018-05-03T14:35:32.686Z,101252.55
2018-05-03T14:38:01.036Z,101251.58
2018-05-03T14:40:29.397Z,101247.15
2018-05-03T14:42:57.724Z,101246.42
2018-05-03T14:45:26.065Z,101240.81
2018-05-03T14:47:54.394Z,101245.95
2018-05-03T14:50:22.740Z,101250.69
2018-05-03T14:52:51.965Z,101249.23
2018-05-03T14:55:20.333Z,101247.50
2018-05-03T14:57:48.660Z,101246.69
2018-05-03T15:00:17.009Z,101250.98
2018-05-03T15:02:45.336Z,101254.86
2018-05-03T15:05:13.694Z,101249.56
2018-05-03T15:07:42.029Z,101259.05
2018-05-03T15:10:10.376Z,101255.86
2018-05-03T15:12:39.726Z,101256.44
2018-05-03T15:15:08.048Z,101257.36
2018-05-03T15:17:36.390Z,101257.06
2018-05-03T15:20:04.741Z,101260.81
2018-05-03T15:22:33.063Z,101261.92
2018-05-03T15:25:01.417Z,101256.73
2018-05-03T15:27:29.753Z,101249.97
2018-05-03T15:29:58.114Z,101248.25
2018-05-03T15:32:27.578Z,101247.64
2018-05-03T15:34:56.345Z,101252.88
2018-05-03T15:37:25.113Z,101253.46
2018-05-03T15:39:53.945Z,101254.65
2018-05-03T15:42:23.322Z,101257.94
2018-05-03T15:44:51.996Z,101260.61
2018-05-03T15:47:20.698Z,101265.67
2018-05-03T15:49:49.348Z,101265.22
2018-05-03T15:52:18.184Z,101264.09
2018-05-03T15:54:47.306Z,101257.05
2018-05-03T15:57:17.483Z,101266.28
2018-05-03T15:59:45.877Z,101267.31
2018-05-03T16:02:14.214Z,101266.52
2018-05-03T16:04:42.575Z,101260.45
2018-05-03T16:07:10.905Z,101263.78
2018-05-03T16:09:39.237Z,101262.47
2018-05-03T16:12:07.599Z,101262.03
2018-05-03T16:14:35.928Z,101269.84
2018-05-03T16:17:06.108Z,101266.19
2018-05-03T16:19:34.458Z,101277.94
2018-05-03T16:22:02.815Z,101280.06
2018-05-03T16:24:31.151Z,101279.47
2018-05-03T16:26:59.505Z,101281.16
2018-05-03T16:29:27.832Z,101280.45
2018-05-03T16:31:56.195Z,101282.30
2018-05-03T16:34:24.584Z,101284.50
2018-05-03T16:36:54.667Z,101286.09
2018-05-03T16:39:23.003Z,101283.25
2018-05-03T16:41:51.369Z,101282.95
2018-05-03T16:44:19.696Z,101285.17
2018-05-03T16:46:48.099Z,101281.27
2018-05-03T16:49:16.397Z,101284.33
2018-05-03T16:51:44.743Z,101281.91
2018-05-03T16:54:13.076Z,101289.31
2018-05-03T16:56:42.449Z,101288.19
2018-05-03T16:59:10.819Z,101289.61
2018-05-03T17:01:39.152Z,101288.64
2018-05-03T17:04:07.488Z,101288.27
2018-05-03T17:06:35.841Z,101286.31
2018-05-03T17:09:04.170Z,101292.58
2018-05-03T17:11:32.529Z,101301.63
2018-05-03T17:14:00.864Z,101304.66
2018-05-03T17:16:29.977Z,101309.38
2018-05-03T17:18:58.305Z,101304.21
2018-05-03T17:21:26.668Z,101307.27
2018-05-03T17:23:55.024Z,101307.05
2018-05-03T17:26:23.392Z,101309.74
2018-05-03T17:28:51.725Z,101315.16
2018-05-03T17:31:20.084Z,101311.44
2018-05-03T17:33:48.485Z,101317.80
2018-05-03T17:36:16.868Z,101324.11
2018-05-03T17:38:45.202Z,101325.13
2018-05-03T17:41:13.548Z,101323.38
2018-05-03T17:43:41.876Z,101329.56
2018-05-03T17:46:10.225Z,101328.69
2018-05-03T17:48:38.556Z,101329.58
2018-05-03T17:51:07.010Z,101330.43
2018-05-03T17:53:35.586Z,101334.46
2018-05-03T17:56:04.537Z,101340.05
2018-05-03T17:58:32.897Z,101345.53
2018-05-03T18:01:01.248Z,101340.41
2018-05-03T18:03:29.577Z,101348.38
2018-05-03T18:05:57.938Z,101351.68
2018-05-03T18:08:26.340Z,101357.25
2018-05-03T18:10:54.818Z,101352.59
2018-05-03T18:13:23.085Z,101357.75
2018-05-03T18:15:51.420Z,101367.12
2018-05-03T18:18:19.772Z,101371.91
2018-05-03T18:20:48.095Z,101378.31
2018-05-03T18:23:16.457Z,101377.98
2018-05-03T18:25:44.784Z,101379.59
2018-05-03T18:28:13.183Z,101389.75
2018-05-03T18:30:41.503Z,101396.13
2018-05-03T18:33:09.854Z,101400.13
2018-05-03T18:35:38.785Z,101405.77
2018-05-03T18:38:07.164Z,101410.16
2018-05-03T18:40:35.485Z,101418.30
2018-05-03T18:43:03.840Z,101417.00
2018-05-03T18:45:32.188Z,101414.67
2018-05-03T18:48:00.556Z,101426.45
2018-05-03T18:50:28.877Z,101436.94
2018-05-03T18:52:57.236Z,101439.58
2018-05-03T18:55:25.660Z,101435.77
2018-05-03T18:57:54.030Z,101440.30
2018-05-03T19:00:22.370Z,101447.50
2018-05-03T19:02:50.738Z,101452.52
2018-05-03T19:05:19.064Z,101460.36
2018-05-03T19:07:47.428Z,101465.62
2018-05-03T19:10:15.784Z,101466.20
2018-05-03T19:12:44.117Z,101473.27
2018-05-03T19:15:13.253Z,101481.67
2018-05-03T19:17:41.604Z,101485.70
2018-05-03T19:20:09.936Z,101484.40
2018-05-03T19:22:38.298Z,101482.66
2018-05-03T19:25:06.645Z,101482.33
2018-05-03T19:27:35.001Z,101494.17
2018-05-03T19:32:50.693Z,101498.73
2018-05-03T19:35:19.077Z,101502.62
2018-05-03T19:37:47.604Z,101503.34
2018-05-03T19:40:15.952Z,101508.18
2018-05-03T19:42:44.353Z,101509.27
2018-05-03T19:45:12.692Z,101517.70
2018-05-03T19:47:41.118Z,101518.48
2018-05-03T19:50:09.380Z,101517.86
2018-05-03T19:52:37.736Z,101524.75
2018-05-03T19:55:06.372Z,101526.43
2018-05-03T19:57:34.733Z,101526.72
2018-05-03T20:00:03.077Z,101530.75
2018-05-03T20:02:31.444Z,101531.69
2018-05-03T20:04:59.772Z,101532.30
2018-05-03T20:07:28.133Z,101535.26
2018-05-03T20:09:56.475Z,101533.19
2018-05-03T20:12:24.829Z,101533.83
2018-05-03T20:14:53.161Z,101544.09
2018-05-03T20:17:21.534Z,101546.09
2018-05-03T20:19:49.874Z,101544.26
2018-05-03T20:22:18.226Z,101551.78
2018-05-03T20:27:21.197Z,101547.06
2018-05-03T20:29:49.535Z,101554.89
2018-05-03T20:32:17.908Z,101546.97
2018-05-03T20:34:46.250Z,101551.84
2018-05-03T20:37:14.585Z,101554.89
2018-05-03T20:39:44.578Z,101560.00
2018-05-03T20:42:12.860Z,101561.86
2018-05-03T20:44:41.213Z,101563.65
2018-05-03T20:47:09.553Z,101567.53
2018-05-03T20:49:37.910Z,101566.09
2018-05-03T20:52:06.308Z,101579.22
2018-05-03T20:54:34.593Z,101577.31
2018-05-03T20:57:02.929Z,101580.67
2018-05-03T20:59:32.197Z,101580.16
2018-05-03T21:02:00.533Z,101578.81
2018-05-03T21:04:28.905Z,101580.40
2018-05-03T21:06:57.312Z,101586.90
2018-05-03T21:09:25.601Z,101583.97
2018-05-03T21:11:53.938Z,101593.86
2018-05-03T21:14:22.302Z,101596.42
2018-05-03T21:16:50.636Z,101596.37
2018-05-03T21:19:19.938Z,101601.64
2018-05-03T21:21:48.275Z,101595.41
2018-05-03T21:24:16.631Z,101602.80
2018-05-03T21:26:44.976Z,101597.30
2018-05-03T21:29:13.325Z,101603.75
2018-05-03T21:31:41.661Z,101608.53
2018-05-03T21:34:10.017Z,101609.02
2018-05-03T21:36:38.352Z,101611.67
2018-05-03T21:39:06.705Z,101606.10
2018-05-03T21:41:35.097Z,101609.05
2018-05-03T21:44:03.394Z,101614.73
2018-05-03T21:46:31.717Z,101616.14
2018-05-03T21:49:00.065Z,101623.45
2018-05-03T21:51:28.390Z,101616.42
2018-05-03T21:53:56.736Z,101615.68
2018-05-03T21:56:25.062Z,101623.66
2018-05-03T21:58:53.404Z,101625.42
2018-05-03T22:01:21.733Z,101624.57
2018-05-03T22:03:50.086Z,101626.25
2018-05-03T22:06:18.401Z,101628.91
2018-05-03T22:08:46.761Z,101628.91
2018-05-03T22:11:15.100Z,101635.83
2018-05-03T22:13:43.461Z,101628.68
2018-05-03T22:16:11.797Z,101628.26
2018-05-03T22:18:40.149Z,101635.11
2018-05-03T22:21:08.472Z,101634.73
2018-05-03T22:23:36.828Z,101640.78
2018-05-03T22:26:05.153Z,101647.27
2018-05-03T22:28:33.510Z,101643.08
2018-05-03T22:31:01.836Z,101637.11
2018-05-03T22:33:30.172Z,101641.02
2018-05-03T22:35:58.508Z,101638.92
2018-05-03T22:38:26.852Z,101639.45
2018-05-03T22:40:55.219Z,101642.83
2018-05-03T22:43:23.542Z,101639.87
2018-05-03T22:45:51.896Z,101635.63
2018-05-03T22:48:20.229Z,101632.25
2018-05-03T22:50:48.584Z,101634.48
2018-05-03T22:53:16.908Z,101644.03
2018-05-03T22:55:45.260Z,101642.33
2018-05-03T22:58:13.597Z,101641.13
2018-05-03T23:00:41.959Z,101640.77
2018-05-03T23:03:10.285Z,101640.00
2018-05-03T23:05:38.636Z,101634.50
2018-05-03T23:08:06.978Z,101629.52
2018-05-03T23:10:35.336Z,101631.73
2018-05-03T23:13:03.668Z,101630.41
2018-05-03T23:15:32.028Z,101643.68
2018-05-03T23:18:00.360Z,101641.18
2018-05-03T23:20:28.727Z,101633.05
2018-05-03T23:22:57.049Z,101633.48
2018-05-03T23:25:25.396Z,101636.90
2018-05-03T23:27:53.845Z,101630.16
2018-05-03T23:30:22.207Z,101635.75
2018-05-03T23:32:50.535Z,101635.36
2018-05-03T23:35:18.884Z,101634.59
2018-05-03T23:37:47.208Z,101638.58
2018-05-03T23:40:15.566Z,101641.19
2018-05-03T23:42:43.904Z,101636.58
2018-05-03T23:45:12.261Z,101639.25
2018-05-03T23:47:40.597Z,101643.98
2018-05-03T23:50:08.944Z,101645.31
2018-05-03T23:52:37.277Z,101641.91
2018-05-03T23:55:05.641Z,101648.78
2018-05-03T23:57:33.972Z,101645.33
